createdAt,value
2022-12-19T00:01:51.696Z,102579.73
2022-12-19T00:04:08.817Z,102573.27
2022-12-19T00:06:22.283Z,102568.46
2022-12-19T00:08:34.075Z,102560.77
2022-12-19T00:10:57.946Z,102556.55
2022-12-19T00:13:09.633Z,102549.23
2022-12-19T00:15:21.833Z,102536.36
2022-12-19T00:17:33.969Z,102522.31
2022-12-19T00:19:49.005Z,102508.60
2022-12-19T00:22:00.996Z,102506.49
2022-12-19T00:24:20.586Z,102499.48
2022-12-19T00:26:36.893Z,102498.13
2022-12-19T00:28:51.826Z,102497.63
2022-12-19T00:31:05.089Z,102495.96
2022-12-19T00:33:17.145Z,102497.22
2022-12-19T00:35:28.832Z,102491.98
2022-12-19T00:37:42.814Z,102491.48
2022-12-19T00:40:01.832Z,102490.63
2022-12-19T00:42:13.623Z,102488.23
2022-12-19T00:44:27.055Z,102480.73
2022-12-19T00:46:39.252Z,102478.85
2022-12-19T00:48:52.168Z,102477.92
2022-12-19T00:51:08.360Z,102481.14
2022-12-19T00:53:20.354Z,102479.98
2022-12-19T00:55:32.247Z,102480.38
2022-12-19T00:57:44.344Z,102486.07
2022-12-19T00:59:56.441Z,102485.48
2022-12-19T01:02:10.512Z,102489.44
2022-12-19T01:04:31.274Z,102490.76
2022-12-19T01:06:45.026Z,102485.86
2022-12-19T01:08:57.527Z,102479.42
2022-12-19T01:11:09.623Z,102479.27
2022-12-19T01:13:27.350Z,102479.69
2022-12-19T01:15:41.328Z,102477.29
2022-12-19T01:17:53.399Z,102481.18
2022-12-19T01:20:05.794Z,102479.47
2022-12-19T01:22:18.404Z,102483.24
2022-12-19T01:24:31.115Z,102482.95
2022-12-19T01:26:43.315Z,102478.45
2022-12-19T01:28:55.143Z,102474.87
2022-12-19T01:31:07.308Z,102471.22
2022-12-19T01:33:21.347Z,102468.25
2022-12-19T01:35:33.143Z,102467.58
2022-12-19T01:37:45.440Z,102460.94
2022-12-19T01:39:57.125Z,102456.40
2022-12-19T01:42:23.522Z,102454.69
2022-12-19T01:44:36.783Z,102450.09
2022-12-19T01:46:52.976Z,102449.09
2022-12-19T01:49:10.603Z,102449.98
2022-12-19T01:51:33.860Z,102449.62
2022-12-19T01:53:53.126Z,102449.09
2022-12-19T01:56:08.508Z,102443.85
2022-12-19T01:58:21.076Z,102431.21
2022-12-19T02:00:32.791Z,102421.02
2022-12-19T02:02:52.749Z,102404.58
2022-12-19T02:05:05.970Z,102399.22
2022-12-19T02:07:20.213Z,102401.05
2022-12-19T02:09:32.831Z,102399.71
2022-12-19T02:11:44.723Z,102394.50
2022-12-19T02:14:00.820Z,102388.59
2022-12-19T02:16:30.916Z,102399.20
2022-12-19T02:18:46.305Z,102399.75
2022-12-19T02:21:06.190Z,102402.39
2022-12-19T02:23:39.996Z,102404.88
2022-12-19T02:26:18.819Z,102403.28
2022-12-19T02:29:02.929Z,102396.95
2022-12-19T02:31:31.025Z,102390.09
2022-12-19T02:33:56.184Z,102386.77
2022-12-19T02:36:16.150Z,102381.48
2022-12-19T02:38:41.080Z,102373.00
2022-12-19T02:41:10.535Z,102374.76
2022-12-19T02:43:24.887Z,102377.20
2022-12-19T02:45:39.807Z,102376.67
2022-12-19T02:47:52.057Z,102379.12
2022-12-19T02:50:05.814Z,102376.10
2022-12-19T02:52:20.345Z,102374.72
2022-12-19T02:54:34.290Z,102380.39
2022-12-19T02:57:00.619Z,102379.72
2022-12-19T02:59:24.186Z,102377.03
2022-12-19T03:01:42.344Z,102371.61
2022-12-19T03:04:17.672Z,102368.29
2022-12-19T03:06:42.874Z,102365.66
2022-12-19T03:09:04.393Z,102361.46
2022-12-19T03:11:16.592Z,102359.50
2022-12-19T03:13:40.062Z,102353.38
2022-12-19T03:15:52.773Z,102349.88
2022-12-19T03:18:06.609Z,102336.66
2022-12-19T03:20:44.406Z,102330.48
2022-12-19T03:22:56.199Z,102323.24
2022-12-19T03:25:08.679Z,102320.21
2022-12-19T03:27:33.399Z,102318.80
2022-12-19T03:30:00.652Z,102323.19
2022-12-19T03:32:15.546Z,102308.58
2022-12-19T03:34:32.741Z,102299.06
2022-12-19T03:36:48.935Z,102298.13
2022-12-19T03:39:04.403Z,102302.02
2022-12-19T03:41:39.541Z,102298.83
2022-12-19T03:43:51.537Z,102280.14
2022-12-19T03:46:14.382Z,102273.30
2022-12-19T03:48:43.613Z,102270.80
2022-12-19T03:51:08.484Z,102265.19
2022-12-19T03:53:30.615Z,102271.12
2022-12-19T03:55:49.877Z,102281.66
2022-12-19T03:58:12.215Z,102283.04
2022-12-19T04:00:26.364Z,102279.67
2022-12-19T04:02:40.811Z,102280.66
2022-12-19T04:04:58.932Z,102276.23
2022-12-19T04:07:12.901Z,102266.64
2022-12-19T04:09:25.101Z,102258.86
2022-12-19T04:11:44.288Z,102260.38
2022-12-19T04:14:01.378Z,102261.27
2022-12-19T04:16:21.105Z,102261.61
2022-12-19T04:18:33.965Z,102259.65
2022-12-19T04:20:59.079Z,102251.30
2022-12-19T04:23:37.586Z,102252.26
2022-12-19T04:25:54.596Z,102244.66
2022-12-19T04:28:18.781Z,102240.92
2022-12-19T04:30:36.713Z,102236.45
2022-12-19T04:32:50.548Z,102234.21
2022-12-19T04:35:03.084Z,102232.61
2022-12-19T04:37:14.746Z,102223.92
2022-12-19T04:39:26.429Z,102222.48
2022-12-19T04:41:38.117Z,102213.47
2022-12-19T04:43:50.316Z,102214.98
2022-12-19T04:46:02.002Z,102216.20
2022-12-19T04:48:13.639Z,102215.30
2022-12-19T04:50:25.787Z,102215.59
2022-12-19T04:52:37.371Z,102217.33
2022-12-19T04:54:49.165Z,102221.33
2022-12-19T04:57:00.753Z,102219.48
2022-12-19T04:59:12.639Z,102216.94
2022-12-19T05:01:25.214Z,102210.90
2022-12-19T05:03:37.505Z,102221.83
2022-12-19T05:05:49.543Z,102221.96
2022-12-19T05:08:01.649Z,102226.13
2022-12-19T05:10:13.435Z,102220.45
2022-12-19T05:12:25.256Z,102220.21
2022-12-19T05:14:37.014Z,102220.19
2022-12-19T05:16:49.212Z,102222.16
2022-12-19T05:19:02.331Z,102223.06
2022-12-19T05:21:13.903Z,102216.50
2022-12-19T05:23:27.241Z,102213.83
2022-12-19T05:25:39.032Z,102209.39
2022-12-19T05:27:50.722Z,102207.59
2022-12-19T05:30:02.515Z,102213.57
2022-12-19T05:32:14.409Z,102208.64
2022-12-19T05:34:26.193Z,102207.39
2022-12-19T05:36:37.895Z,102205.92
2022-12-19T05:38:49.973Z,102205.01
2022-12-19T05:41:10.379Z,102193.88
2022-12-19T05:43:22.357Z,102184.48
2022-12-19T05:45:34.055Z,102185.35
2022-12-19T05:47:49.528Z,102180.42
2022-12-19T05:50:02.234Z,102180.42
2022-12-19T05:52:14.024Z,102180.21
2022-12-19T05:54:26.326Z,102180.85
2022-12-19T05:56:37.914Z,102175.52
2022-12-19T05:58:50.721Z,102177.60
2022-12-19T06:01:11.737Z,102175.64
2022-12-19T06:03:23.423Z,102170.17
2022-12-19T06:05:38.483Z,102171.58
2022-12-19T06:07:50.376Z,102166.60
2022-12-19T06:10:02.372Z,102160.60
2022-12-19T06:12:14.515Z,102162.16
2022-12-19T06:14:26.880Z,102154.70
2022-12-19T06:16:38.590Z,102152.88
2022-12-19T06:18:50.904Z,102156.02
2022-12-19T06:21:06.646Z,102153.62
2022-12-19T06:23:19.361Z,102153.38
2022-12-19T06:25:31.365Z,102153.59
2022-12-19T06:27:42.938Z,102152.52
2022-12-19T06:29:54.954Z,102147.52
2022-12-19T06:32:06.822Z,102144.69
2022-12-19T06:34:39.891Z,102144.85
2022-12-19T06:36:57.536Z,102141.45
2022-12-19T06:39:13.110Z,102142.66
2022-12-19T06:41:44.508Z,102150.08
2022-12-19T06:44:00.801Z,102156.73
2022-12-19T06:46:12.813Z,102159.84
2022-12-19T06:48:28.036Z,102161.37
2022-12-19T06:50:40.023Z,102154.78
2022-12-19T06:52:52.114Z,102154.00
2022-12-19T06:55:04.722Z,102151.14
2022-12-19T06:57:16.514Z,102151.80
2022-12-19T06:59:28.946Z,102139.98
2022-12-19T07:01:44.083Z,102134.46
2022-12-19T07:03:57.315Z,102127.89
2022-12-19T07:06:08.793Z,102121.64
2022-12-19T07:08:20.948Z,102122.27
2022-12-19T07:10:33.191Z,102124.63
2022-12-19T07:12:45.389Z,102125.89
2022-12-19T07:14:57.230Z,102122.91
2022-12-19T07:17:09.276Z,102115.67
2022-12-19T07:19:22.822Z,102110.05
2022-12-19T07:21:35.721Z,102110.91
2022-12-19T07:23:48.741Z,102111.61
2022-12-19T07:26:01.354Z,102110.37
2022-12-19T07:28:13.894Z,102108.56
2022-12-19T07:30:25.857Z,102103.61
2022-12-19T07:32:39.692Z,102105.86
2022-12-19T07:34:51.273Z,102111.09
2022-12-19T07:37:07.162Z,102109.95
2022-12-19T07:39:19.260Z,102109.89
2022-12-19T07:41:30.944Z,102106.34
2022-12-19T07:43:42.870Z,102107.34
2022-12-19T07:45:56.825Z,102107.32
2022-12-19T07:48:08.777Z,102107.08
2022-12-19T07:50:21.587Z,102108.08
2022-12-19T07:52:32.969Z,102104.14
2022-12-19T07:54:44.479Z,102101.55
2022-12-19T07:56:56.485Z,102101.30
2022-12-19T07:59:10.754Z,102088.60
2022-12-19T08:01:22.915Z,102085.89
2022-12-19T08:03:36.111Z,102091.80
2022-12-19T08:05:47.739Z,102091.13
2022-12-19T08:08:00.233Z,102089.92
2022-12-19T08:10:14.918Z,102091.95
2022-12-19T08:12:27.205Z,102096.80
2022-12-19T08:14:39.262Z,102090.59
2022-12-19T08:17:19.397Z,102077.63
2022-12-19T08:19:27.459Z,102064.20
2022-12-19T08:21:39.531Z,102057.63
2022-12-19T08:23:51.145Z,102054.98
2022-12-19T08:26:08.011Z,102048.80
2022-12-19T08:28:20.112Z,102045.23
2022-12-19T08:30:32.210Z,102046.11
2022-12-19T08:32:45.425Z,102043.02
2022-12-19T08:34:57.257Z,102034.66
2022-12-19T08:37:09.441Z,102036.42
2022-12-19T08:39:21.516Z,102038.77
2022-12-19T08:41:33.408Z,102036.77
2022-12-19T08:43:50.934Z,102039.13
2022-12-19T08:46:03.650Z,102040.42
2022-12-19T08:48:17.808Z,102035.85
2022-12-19T08:50:29.906Z,102032.40
2022-12-19T08:52:41.985Z,102030.16
2022-12-19T08:54:53.782Z,102026.46
2022-12-19T08:57:11.004Z,102027.33
2022-12-19T08:59:31.555Z,102029.30
2022-12-19T09:01:43.951Z,102030.69
2022-12-19T09:05:04.763Z,102033.82
2022-12-19T09:06:31.723Z,102024.52
2022-12-19T09:08:44.040Z,102023.81
2022-12-19T09:10:59.955Z,102013.25
2022-12-19T09:13:12.356Z,102012.77
2022-12-19T09:15:24.587Z,102010.95
2022-12-19T09:17:36.321Z,102005.00
2022-12-19T09:19:48.617Z,101995.91
2022-12-19T09:22:00.925Z,101992.42
2022-12-19T09:24:13.125Z,101993.58
2022-12-19T09:26:27.378Z,102001.13
2022-12-19T09:28:46.433Z,102000.86
2022-12-19T09:31:04.333Z,101994.70
2022-12-19T09:33:16.152Z,101998.19
2022-12-19T09:35:30.549Z,101992.37
2022-12-19T09:37:42.300Z,101984.64
2022-12-19T09:39:58.721Z,101985.37
2022-12-19T09:42:40.635Z,101982.67
2022-12-19T09:45:16.995Z,101977.72
2022-12-19T09:47:43.905Z,101972.90
2022-12-19T09:49:58.762Z,101971.46
2022-12-19T09:52:46.701Z,101965.62
2022-12-19T09:55:21.529Z,101963.29
2022-12-19T09:57:48.353Z,101953.63
2022-12-19T10:00:06.336Z,101950.29
2022-12-19T10:02:34.375Z,101943.85
2022-12-19T10:05:31.141Z,101937.19
2022-12-19T10:08:01.766Z,101933.34
2022-12-19T10:12:36.267Z,101925.95
2022-12-19T10:12:59.628Z,101916.87
2022-12-19T10:15:20.949Z,101911.64
2022-12-19T10:17:58.011Z,101907.07
2022-12-19T10:20:16.272Z,101892.80
2022-12-19T10:22:42.403Z,101895.92
2022-12-19T10:25:21.029Z,101902.15
2022-12-19T10:27:57.237Z,101899.33
2022-12-19T10:30:21.263Z,101895.52
2022-12-19T10:32:47.000Z,101892.36
2022-12-19T10:34:59.581Z,101891.56
2022-12-19T10:37:26.881Z,101888.46
2022-12-19T10:39:54.815Z,101888.44
2022-12-19T10:42:19.731Z,101881.13
2022-12-19T10:44:38.540Z,101870.09
2022-12-19T10:46:50.625Z,101871.30
2022-12-19T10:49:18.042Z,101865.31
2022-12-19T10:51:32.619Z,101863.04
2022-12-19T10:53:54.105Z,101865.80
2022-12-19T10:56:20.720Z,101853.00
2022-12-19T10:58:35.694Z,101846.70
2022-12-19T11:01:02.491Z,101844.33
2022-12-19T11:03:16.935Z,101836.39
2022-12-19T11:05:42.556Z,101822.58
2022-12-19T11:08:04.106Z,101818.45
2022-12-19T11:11:43.503Z,101810.73
2022-12-19T11:17:52.175Z,101805.04
2022-12-19T11:19:38.970Z,101810.68
2022-12-19T11:27:35.081Z,101807.76
2022-12-19T11:29:32.067Z,101801.21
2022-12-19T11:30:41.545Z,101793.27
2022-12-19T11:30:45.724Z,101796.88
2022-12-19T11:32:36.520Z,101787.60
2022-12-19T11:34:50.165Z,101789.75
2022-12-19T11:37:21.446Z,101786.02
2022-12-19T11:39:46.928Z,101782.00
2022-12-19T11:42:24.211Z,101782.32
2022-12-19T11:45:01.699Z,101779.36
2022-12-19T11:47:28.550Z,101772.87
2022-12-19T11:50:24.789Z,101779.39
2022-12-19T11:53:13.013Z,101772.34
2022-12-19T11:55:26.755Z,101771.09
2022-12-19T11:57:41.416Z,101769.98
2022-12-19T11:59:56.454Z,101759.95
2022-12-19T12:02:39.099Z,101759.96
2022-12-19T12:05:06.552Z,101764.79
2022-12-19T12:07:41.481Z,101754.65
2022-12-19T12:18:25.554Z,101743.42
2022-12-19T12:21:04.074Z,101733.70
2022-12-19T12:26:41.350Z,101731.58
2022-12-19T12:31:06.482Z,101718.36
2022-12-19T12:31:21.869Z,101721.71
2022-12-19T12:31:23.448Z,101720.72
2022-12-19T12:31:44.604Z,101696.27
2022-12-19T12:31:53.070Z,101712.72
2022-12-19T12:35:40.929Z,101686.11
2022-12-19T12:38:40.448Z,101680.30
2022-12-19T12:41:10.077Z,101689.52
2022-12-19T12:43:51.256Z,101687.13
2022-12-19T12:46:05.137Z,101676.76
2022-12-19T12:48:41.153Z,101683.05
2022-12-19T12:50:55.378Z,101675.61
2022-12-19T12:53:10.057Z,101668.73
2022-12-19T12:55:30.048Z,101672.64
2022-12-19T12:57:41.838Z,101665.46
2022-12-19T13:00:26.794Z,101670.21
2022-12-19T13:02:39.008Z,101662.17
2022-12-19T13:04:58.868Z,101660.23
2022-12-19T13:07:27.047Z,101650.17
2022-12-19T13:09:39.965Z,101633.38
2022-12-19T13:12:14.799Z,101623.21
2022-12-19T13:14:37.234Z,101624.10
2022-12-19T13:16:50.968Z,101630.37
2022-12-19T13:19:24.185Z,101631.66
2022-12-19T13:22:09.545Z,101629.01
2022-12-19T13:24:23.785Z,101617.56
2022-12-19T13:26:50.153Z,101622.42
2022-12-19T13:29:33.036Z,101630.25
2022-12-19T13:32:09.305Z,101628.69
2022-12-19T13:34:21.099Z,101624.71
2022-12-19T13:40:00.222Z,101618.97
2022-12-19T13:40:00.760Z,101620.19
2022-12-19T13:42:40.396Z,101623.08
2022-12-19T13:44:54.809Z,101616.09
2022-12-19T13:47:06.640Z,101606.83
2022-12-19T13:49:27.484Z,101600.11
2022-12-19T13:52:02.472Z,101601.06
2022-12-19T13:54:20.001Z,101600.64
2022-12-19T13:56:32.117Z,101597.09
2022-12-19T13:58:49.833Z,101595.95
2022-12-19T14:01:07.811Z,101595.11
2022-12-19T14:03:40.837Z,101591.94
2022-12-19T14:06:15.996Z,101589.67
2022-12-19T14:08:25.665Z,101584.25
2022-12-19T14:11:40.295Z,101583.17
2022-12-19T14:13:54.102Z,101591.00
2022-12-19T14:16:18.594Z,101593.61
2022-12-19T14:18:44.411Z,101589.33
2022-12-19T14:22:06.855Z,101583.59
2022-12-19T14:23:50.923Z,101580.16
2022-12-19T14:28:17.163Z,101578.34
2022-12-19T14:28:54.693Z,101569.93
2022-12-19T14:31:11.866Z,101562.41
2022-12-19T14:33:45.424Z,101559.44
2022-12-19T14:36:14.667Z,101559.79
2022-12-19T14:39:23.844Z,101559.24
2022-12-19T14:41:09.562Z,101560.48
2022-12-19T14:43:59.030Z,101563.11
2022-12-19T14:52:35.101Z,101562.95
2022-12-19T14:54:03.014Z,101561.34
2022-12-19T14:54:29.350Z,101560.44
2022-12-19T14:55:18.604Z,101561.42
2022-12-19T14:56:59.045Z,101561.75
2022-12-19T14:59:35.930Z,101556.36
2022-12-19T15:01:53.938Z,101551.16
2022-12-19T15:04:53.140Z,101547.71
2022-12-19T15:07:08.677Z,101545.48
2022-12-19T15:11:03.774Z,101545.26
2022-12-19T15:14:04.135Z,101538.87
2022-12-19T15:15:18.408Z,101534.73
2022-12-19T15:17:29.994Z,101528.61
2022-12-19T15:19:41.987Z,101524.30
2022-12-19T15:21:53.880Z,101525.66
2022-12-19T15:24:05.879Z,101531.16
2022-12-19T15:26:32.849Z,101537.27
2022-12-19T15:28:51.296Z,101533.37
2022-12-19T15:31:18.799Z,101530.54
2022-12-19T15:33:35.659Z,101529.56
2022-12-19T15:35:47.838Z,101526.49
2022-12-19T15:37:59.938Z,101517.42
2022-12-19T15:40:17.071Z,101519.40
2022-12-19T15:42:29.657Z,101513.42
2022-12-19T15:44:43.831Z,101510.26
2022-12-19T15:46:55.842Z,101508.69
2022-12-19T15:49:15.519Z,101502.23
2022-12-19T15:51:27.398Z,101496.81
2022-12-19T15:53:41.364Z,101493.26
2022-12-19T15:55:56.509Z,101489.39
2022-12-19T15:58:08.361Z,101486.08
2022-12-19T16:00:27.859Z,101484.11
2022-12-19T16:05:12.229Z,101486.56
2022-12-19T16:07:27.775Z,101482.95
2022-12-19T16:09:40.280Z,101479.84
2022-12-19T16:11:54.487Z,101479.08
2022-12-19T16:14:12.158Z,101481.84
2022-12-19T16:16:25.549Z,101477.04
2022-12-19T16:18:38.122Z,101472.18
2022-12-19T16:20:50.195Z,101470.10
2022-12-19T16:23:02.706Z,101464.58
2022-12-19T16:25:15.216Z,101461.04
2022-12-19T16:27:31.916Z,101457.94
2022-12-19T16:29:43.697Z,101450.27
2022-12-19T16:31:55.420Z,101448.63
2022-12-19T16:34:19.976Z,101440.20
2022-12-19T16:36:31.867Z,101441.41
2022-12-19T16:38:43.967Z,101432.27
2022-12-19T16:40:57.396Z,101433.97
2022-12-19T16:43:28.847Z,101434.09
2022-12-19T16:45:40.552Z,101427.48
2022-12-19T16:47:53.051Z,101425.80
2022-12-19T16:50:18.343Z,101423.62
2022-12-19T16:52:30.647Z,101422.01
2022-12-19T16:54:42.349Z,101423.33
2022-12-19T16:56:54.801Z,101417.91
2022-12-19T16:59:15.751Z,101411.73
2022-12-19T17:01:29.290Z,101408.48
2022-12-19T17:03:44.932Z,101410.39
2022-12-19T17:05:56.856Z,101409.34
2022-12-19T17:08:13.687Z,101412.43
2022-12-19T17:10:33.350Z,101415.29
2022-12-19T17:12:49.421Z,101416.04
2022-12-19T17:15:02.672Z,101418.02
2022-12-19T17:17:16.085Z,101416.41
2022-12-19T17:19:36.262Z,101414.75
2022-12-19T17:21:49.278Z,101408.58
2022-12-19T17:24:01.195Z,101414.77
2022-12-19T17:26:17.593Z,101410.49
2022-12-19T17:28:30.280Z,101415.29
2022-12-19T17:30:48.789Z,101408.98
2022-12-19T17:33:00.824Z,101405.52
2022-12-19T17:35:22.523Z,101401.02
2022-12-19T17:37:37.824Z,101401.16
2022-12-19T17:39:49.421Z,101405.20
2022-12-19T17:42:13.889Z,101399.27
2022-12-19T17:44:26.062Z,101397.98
2022-12-19T17:46:39.418Z,101393.92
2022-12-19T17:48:54.178Z,101387.16
2022-12-19T17:51:06.377Z,101385.14
2022-12-19T17:53:18.479Z,101378.09
2022-12-19T17:55:31.402Z,101385.41
2022-12-19T17:57:43.592Z,101382.14
2022-12-19T17:59:55.811Z,101382.27
2022-12-19T18:02:25.334Z,101372.10
2022-12-19T18:04:42.937Z,101368.73
2022-12-19T18:06:56.042Z,101367.73
2022-12-19T18:09:31.694Z,101365.55
2022-12-19T18:11:51.717Z,101361.86
2022-12-19T18:14:05.739Z,101366.38
2022-12-19T18:16:23.073Z,101364.75
2022-12-19T18:18:36.374Z,101361.75
2022-12-19T18:20:49.236Z,101363.07
2022-12-19T18:23:03.156Z,101355.71
2022-12-19T18:25:22.199Z,101355.98
2022-12-19T18:27:37.769Z,101357.92
2022-12-19T18:29:50.510Z,101347.66
2022-12-19T18:32:02.459Z,101345.45
2022-12-19T18:34:26.231Z,101345.48
2022-12-19T18:36:42.862Z,101337.29
2022-12-19T18:38:56.727Z,101341.20
2022-12-19T18:41:11.895Z,101341.96
2022-12-19T18:43:25.106Z,101338.23
2022-12-19T18:45:41.605Z,101336.59
2022-12-19T18:48:02.574Z,101337.80
2022-12-19T18:50:19.799Z,101336.73
2022-12-19T18:52:32.520Z,101339.10
2022-12-19T18:54:45.338Z,101342.05
2022-12-19T18:56:58.157Z,101344.11
2022-12-19T18:59:11.591Z,101341.83
2022-12-19T19:01:28.740Z,101343.71
2022-12-19T19:03:44.970Z,101341.06
2022-12-19T19:05:57.803Z,101339.94
2022-12-19T19:08:18.748Z,101340.40
2022-12-19T19:10:36.162Z,101339.44
2022-12-19T19:12:56.091Z,101342.17
2022-12-19T19:15:09.421Z,101337.23
2022-12-19T19:17:40.417Z,101338.04
2022-12-19T19:20:10.677Z,101335.79
2022-12-19T19:22:26.591Z,101331.80
2022-12-19T19:24:39.072Z,101329.39
2022-12-19T19:26:51.571Z,101328.98
2022-12-19T19:29:04.238Z,101331.48
2022-12-19T19:31:19.129Z,101337.06
2022-12-19T19:33:36.979Z,101333.77
2022-12-19T19:35:54.942Z,101328.93
2022-12-19T19:38:08.959Z,101329.38
2022-12-19T19:40:20.764Z,101332.94
2022-12-19T19:42:33.149Z,101332.00
2022-12-19T19:44:46.300Z,101331.27
2022-12-19T19:46:58.427Z,101325.38
2022-12-19T19:49:10.684Z,101324.61
2022-12-19T19:51:22.868Z,101329.94
2022-12-19T19:53:36.398Z,101324.95
2022-12-19T19:55:57.612Z,101321.65
2022-12-19T19:58:09.809Z,101324.50
2022-12-19T20:00:22.627Z,101325.08
2022-12-19T20:02:35.136Z,101335.33
2022-12-19T20:04:47.453Z,101331.02
2022-12-19T20:06:59.732Z,101328.36
2022-12-19T20:09:11.526Z,101327.85
2022-12-19T20:11:23.211Z,101325.08
2022-12-19T20:13:35.325Z,101326.67
2022-12-19T20:15:49.926Z,101318.08
2022-12-19T20:18:01.967Z,101318.89
2022-12-19T20:20:13.853Z,101316.52
2022-12-19T20:22:26.155Z,101311.02
2022-12-19T20:24:38.047Z,101314.23
2022-12-19T20:26:49.732Z,101311.28
2022-12-19T20:29:02.242Z,101311.23
2022-12-19T20:31:14.082Z,101308.28
2022-12-19T20:33:26.536Z,101310.55
2022-12-19T20:35:38.427Z,101311.75
2022-12-19T20:37:50.533Z,101307.66
2022-12-19T20:40:02.131Z,101304.05
2022-12-19T20:42:14.004Z,101303.69
2022-12-19T20:44:26.305Z,101295.23
2022-12-19T20:46:38.957Z,101289.99
2022-12-19T20:48:51.419Z,101288.31
2022-12-19T20:51:04.952Z,101286.26
2022-12-19T20:53:16.433Z,101283.20
2022-12-19T20:55:28.119Z,101286.34
2022-12-19T20:57:39.983Z,101277.98
2022-12-19T20:59:52.620Z,101283.75
2022-12-19T21:02:05.057Z,101277.45
2022-12-19T21:04:17.598Z,101279.52
2022-12-19T21:06:29.971Z,101275.17
2022-12-19T21:08:42.346Z,101276.87
2022-12-19T21:10:55.153Z,101270.99
2022-12-19T21:13:06.945Z,101272.52
2022-12-19T21:15:51.059Z,101267.33
2022-12-19T21:18:03.335Z,101259.92
2022-12-19T21:20:15.606Z,101273.14
2022-12-19T21:22:27.597Z,101260.13
2022-12-19T21:24:39.818Z,101270.20
2022-12-19T21:26:58.143Z,101263.02
2022-12-19T21:29:11.663Z,101263.09
2022-12-19T21:31:27.354Z,101269.95
2022-12-19T21:33:39.650Z,101262.20
2022-12-19T21:35:51.439Z,101266.41
2022-12-19T21:38:04.797Z,101258.73
2022-12-19T21:40:23.544Z,101261.84
2022-12-19T21:42:36.672Z,101254.77
2022-12-19T21:44:50.752Z,101254.41
2022-12-19T21:47:07.990Z,101258.39
2022-12-19T21:49:26.367Z,101259.36
2022-12-19T21:51:38.988Z,101247.79
2022-12-19T21:53:57.175Z,101250.30
2022-12-19T21:56:22.342Z,101246.11
2022-12-19T21:58:36.386Z,101240.14
2022-12-19T22:00:49.400Z,101237.48
2022-12-19T22:03:15.506Z,101235.08
2022-12-19T22:05:28.207Z,101230.35
2022-12-19T22:07:42.274Z,101235.16
2022-12-19T22:09:55.784Z,101230.24
2022-12-19T22:12:13.237Z,101229.39
2022-12-19T22:14:29.756Z,101231.36
2022-12-19T22:16:44.686Z,101234.95
2022-12-19T22:19:07.465Z,101230.61
2022-12-19T22:21:20.954Z,101237.02
2022-12-19T22:23:33.438Z,101231.88
2022-12-19T22:25:45.288Z,101233.36
2022-12-19T22:27:57.121Z,101236.30
2022-12-19T22:30:11.308Z,101234.73
2022-12-19T22:32:23.366Z,101231.41
2022-12-19T22:34:35.463Z,101228.46
2022-12-19T22:36:49.125Z,101225.67
2022-12-19T22:39:04.236Z,101220.48
2022-12-19T22:41:18.109Z,101220.33
2022-12-19T22:43:30.412Z,101211.38
2022-12-19T22:45:42.185Z,101208.44
2022-12-19T22:47:54.287Z,101204.30
2022-12-19T22:50:07.012Z,101202.89
2022-12-19T22:52:19.966Z,101190.39
2022-12-19T22:54:32.426Z,101194.29
2022-12-19T22:56:44.012Z,101189.05
2022-12-19T22:58:59.387Z,101193.77
2022-12-19T23:01:14.943Z,101194.05
2022-12-19T23:03:27.229Z,101194.52
2022-12-19T23:05:39.363Z,101183.81
2022-12-19T23:07:51.149Z,101188.66
2022-12-19T23:10:03.657Z,101186.87
2022-12-19T23:12:15.342Z,101183.98
2022-12-19T23:14:27.012Z,101183.92
2022-12-19T23:16:38.984Z,101185.79
2022-12-19T23:18:51.022Z,101186.10
2022-12-19T23:21:09.450Z,101189.83
2022-12-19T23:23:21.565Z,101179.63
2022-12-19T23:25:38.274Z,101179.39
2022-12-19T23:27:50.260Z,101170.14
2022-12-19T23:30:01.900Z,101172.02
2022-12-19T23:32:13.933Z,101168.52
2022-12-19T23:34:26.044Z,101164.64
2022-12-19T23:39:11.740Z,101156.09
2022-12-19T23:41:24.860Z,101153.60
2022-12-19T23:43:37.781Z,101154.59
2022-12-19T23:45:52.265Z,101154.41
2022-12-19T23:48:04.531Z,101168.70
2022-12-19T23:50:16.737Z,101175.38
2022-12-19T23:52:28.727Z,101167.48
2022-12-19T23:54:40.415Z,101161.61
2022-12-19T23:56:53.655Z,101156.05
2022-12-19T23:59:05.937Z,101160.15
